Time,TemperatureF,DewpointF,PressureIn,WindDirection,WindDirectionDegrees,WindSpeedMPH,WindSpeedGustMPH,Humidity,HourlyPrecipIn,Conditions,Clouds,dailyrainin,SoftwareType,DateUTC
2013-03-22 00:00:00,25.4,17.0,30.05,West,270,0.0,0.0,70,0.00,,,0.00,VWS V14.01,2013-03-22 04:00:00,
2013-03-22 00:05:00,25.3,16.9,30.05,West,259,0.0,0.0,70,0.00,,,0.00,VWS V14.01,2013-03-22 04:05:00,
2013-03-22 00:10:00,25.3,17.2,30.05,West,259,0.0,0.0,71,0.00,,,0.00,VWS V14.01,2013-03-22 04:10:00,
2013-03-22 00:15:00,25.1,17.0,30.05,West,259,0.0,0.0,71,0.00,,,0.00,VWS V14.01,2013-03-22 04:15:00,
2013-03-22 00:20:00,24.9,16.8,30.05,West,278,0.0,0.0,71,0.00,,,0.00,VWS V14.01,2013-03-22 04:20:00,
2013-03-22 00:25:00,24.8,17.1,30.05,West,278,0.0,0.0,72,0.00,,,0.00,VWS V14.01,2013-03-22 04:25:00,
2013-03-22 00:30:00,24.7,17.0,30.05,West,278,0.0,0.0,72,0.00,,,0.00,VWS V14.01,2013-03-22 04:30:00,
2013-03-22 00:35:00,24.6,17.2,30.05,West,278,0.0,0.0,73,0.00,,,0.00,VWS V14.01,2013-03-22 04:35:00,
2013-03-22 00:40:00,24.4,17.3,30.05,West,278,0.0,0.0,74,0.00,,,0.00,VWS V14.01,2013-03-22 04:40:00,
2013-03-22 00:45:00,24.3,17.2,30.05,West,278,0.0,0.0,74,0.00,,,0.00,VWS V14.01,2013-03-22 04:45:00,
2013-03-22 00:50:00,23.9,16.5,30.05,West,278,0.0,0.0,73,0.00,,,0.00,VWS V14.01,2013-03-22 04:50:00,
2013-03-22 00:55:00,23.6,16.9,30.05,West,278,0.0,0.0,75,0.00,,,0.00,VWS V14.01,2013-03-22 04:55:00,
2013-03-22 01:00:00,23.4,17.0,30.06,West,278,0.0,0.0,76,0.00,,,0.00,VWS V14.01,2013-03-22 05:00:00,
2013-03-22 01:05:00,23.2,17.1,30.06,West,278,0.0,0.0,77,0.00,,,0.00,VWS V14.01,2013-03-22 05:05:00,
2013-03-22 01:10:00,23.0,16.9,30.05,West,278,0.0,0.0,77,0.00,,,0.00,VWS V14.01,2013-03-22 05:10:00,
2013-03-22 01:15:00,22.8,17.0,30.06,West,278,0.0,0.0,78,0.00,,,0.00,VWS V14.01,2013-03-22 05:15:00,
2013-03-22 01:20:00,22.8,17.3,30.06,West,278,0.0,0.0,79,0.00,,,0.00,VWS V14.01,2013-03-22 05:20:00,
2013-03-22 01:25:00,22.6,17.1,30.05,West,278,0.0,0.0,79,0.00,,,0.00,VWS V14.01,2013-03-22 05:25:00,
2013-03-22 01:30:00,22.7,17.5,30.05,West,278,0.0,0.0,80,0.00,,,0.00,VWS V14.01,2013-03-22 05:30:00,
2013-03-22 01:35:00,22.7,17.2,30.05,West,278,0.0,0.0,79,0.00,,,0.00,VWS V14.01,2013-03-22 05:35:00,
2013-03-22 01:40:00,22.5,17.3,30.05,West,278,0.0,0.0,80,0.00,,,0.00,VWS V14.01,2013-03-22 05:40:00,
2013-03-22 01:45:00,22.7,17.5,30.05,West,278,0.0,0.0,80,0.00,,,0.00,VWS V14.01,2013-03-22 05:45:00,
2013-03-22 01:50:00,22.7,17.5,30.05,West,278,0.0,0.0,80,0.00,,,0.00,VWS V14.01,2013-03-22 05:50:00,
2013-03-22 01:55:00,22.5,17.3,30.05,West,278,0.0,0.0,80,0.00,,,0.00,VWS V14.01,2013-03-22 05:55:00,
2013-03-22 02:00:00,22.1,17.2,30.05,West,278,0.0,0.0,81,0.00,,,0.00,VWS V14.01,2013-03-22 06:00:00,
2013-03-22 02:05:00,22.1,17.2,30.05,West,278,0.0,0.0,81,0.00,,,0.00,VWS V14.01,2013-03-22 06:05:00,
2013-03-22 02:10:00,22.1,17.2,30.06,West,278,0.0,0.0,81,0.00,,,0.00,VWS V14.01,2013-03-22 06:10:00,
2013-03-22 02:15:00,22.0,17.1,30.06,West,278,0.0,0.0,81,0.00,,,0.00,VWS V14.01,2013-03-22 06:15:00,
2013-03-22 02:20:00,21.9,17.0,30.06,West,278,0.0,0.0,81,0.00,,,0.00,VWS V14.01,2013-03-22 06:20:00,
2013-03-22 02:25:00,21.5,16.6,30.06,West,278,0.0,0.0,81,0.00,,,0.00,VWS V14.01,2013-03-22 06:25:00,
2013-03-22 02:30:00,21.6,17.0,30.06,West,278,0.0,0.0,82,0.00,,,0.00,VWS V14.01,2013-03-22 06:30:00,
2013-03-22 02:35:00,21.9,17.3,30.06,West,278,0.0,0.0,82,0.00,,,0.00,VWS V14.01,2013-03-22 06:35:00,
2013-03-22 02:40:00,22.0,17.4,30.06,West,278,0.0,0.0,82,0.00,,,0.00,VWS V14.01,2013-03-22 06:40:00,
2013-03-22 02:45:00,21.8,17.2,30.06,West,278,0.0,0.0,82,0.00,,,0.00,VWS V14.01,2013-03-22 06:45:00,
2013-03-22 02:50:00,21.6,17.0,30.06,West,278,0.0,0.0,82,0.00,,,0.00,VWS V14.01,2013-03-22 06:50:00,
2013-03-22 02:55:00,21.4,16.8,30.06,West,278,0.0,0.0,82,0.00,,,0.00,VWS V14.01,2013-03-22 06:55:00,
2013-03-22 03:00:00,20.9,16.3,30.06,West,278,0.0,0.0,82,0.00,,,0.00,VWS V14.01,2013-03-22 07:00:00,
2013-03-22 03:05:00,20.6,16.5,30.06,West,278,0.0,0.0,84,0.00,,,0.00,VWS V14.01,2013-03-22 07:05:00,
2013-03-22 03:10:00,21.0,17.2,30.06,West,278,0.0,0.0,85,0.00,,,0.00,VWS V14.01,2013-03-22 07:10:00,
2013-03-22 03:15:00,21.0,16.9,30.06,West,278,0.0,0.0,84,0.00,,,0.00,VWS V14.01,2013-03-22 07:15:00,
2013-03-22 03:20:00,20.7,16.6,30.07,West,278,0.0,0.0,84,0.00,,,0.00,VWS V14.01,2013-03-22 07:20:00,
2013-03-22 03:25:00,20.6,16.8,30.06,West,278,0.0,0.0,85,0.00,,,0.00,VWS V14.01,2013-03-22 07:25:00,
2013-03-22 03:30:00,20.9,17.4,30.07,West,278,0.0,0.0,86,0.00,,,0.00,VWS V14.01,2013-03-22 07:30:00,
2013-03-22 03:35:00,20.7,16.9,30.07,West,278,0.0,0.0,85,0.00,,,0.00,VWS V14.01,2013-03-22 07:35:00,
2013-03-22 03:40:00,20.5,17.0,30.07,West,278,0.0,0.0,86,0.00,,,0.00,VWS V14.01,2013-03-22 07:40:00,
2013-03-22 03:45:00,20.4,16.9,30.07,West,278,0.0,0.0,86,0.00,,,0.00,VWS V14.01,2013-03-22 07:45:00,
2013-03-22 03:50:00,19.9,16.1,30.07,West,278,0.0,0.0,85,0.00,,,0.00,VWS V14.01,2013-03-22 07:50:00,
2013-03-22 03:55:00,19.6,16.1,30.07,West,278,0.0,0.0,86,0.00,,,0.00,VWS V14.01,2013-03-22 07:55:00,
2013-03-22 04:00:00,19.6,16.4,30.07,West,278,0.0,0.0,87,0.00,,,0.00,VWS V14.01,2013-03-22 08:00:00,
2013-03-22 04:05:00,19.7,16.5,30.07,West,278,0.0,0.0,87,0.00,,,0.00,VWS V14.01,2013-03-22 08:05:00,
2013-03-22 04:10:00,19.6,16.6,30.07,West,278,0.0,0.0,88,0.00,,,0.00,VWS V14.01,2013-03-22 08:10:00,
2013-03-22 04:15:00,19.3,16.1,30.07,West,278,0.0,0.0,87,0.00,,,0.00,VWS V14.01,2013-03-22 08:15:00,
2013-03-22 04:20:00,19.0,16.0,30.07,West,278,0.0,0.0,88,0.00,,,0.00,VWS V14.01,2013-03-22 08:20:00,
2013-03-22 04:25:00,19.2,16.5,30.06,West,278,0.0,0.0,89,0.00,,,0.00,VWS V14.01,2013-03-22 08:25:00,
2013-03-22 04:30:00,19.2,16.5,30.06,West,278,0.0,0.0,89,0.00,,,0.00,VWS V14.01,2013-03-22 08:30:00,
2013-03-22 04:35:00,19.2,16.5,30.06,West,278,0.0,0.0,89,0.00,,,0.00,VWS V14.01,2013-03-22 08:35:00,
2013-03-22 04:40:00,19.1,16.4,30.06,West,278,0.0,0.0,89,0.00,,,0.00,VWS V14.01,2013-03-22 08:40:00,
2013-03-22 04:45:00,19.0,16.3,30.06,West,278,0.0,0.0,89,0.00,,,0.00,VWS V14.01,2013-03-22 08:45:00,
2013-03-22 04:50:00,18.8,16.1,30.06,West,278,0.0,0.0,89,0.00,,,0.00,VWS V14.01,2013-03-22 08:50:00,
2013-03-22 04:55:00,18.8,16.1,30.06,West,278,0.0,0.0,89,0.00,,,0.00,VWS V14.01,2013-03-22 08:55:00,
2013-03-22 05:00:00,18.8,16.1,30.06,West,278,0.0,0.0,89,0.00,,,0.00,VWS V14.01,2013-03-22 09:00:00,
2013-03-22 05:06:00,18.5,15.8,30.06,West,278,0.0,0.0,89,0.00,,,0.00,VWS V14.01,2013-03-22 09:06:00,
2013-03-22 05:12:00,18.3,15.6,30.07,West,278,0.0,0.0,89,0.00,,,0.00,VWS V14.01,2013-03-22 09:12:00,
2013-03-22 05:17:00,18.2,16.0,30.07,West,278,0.0,0.0,90,0.00,,,0.00,weatherlink.com 1.10,2013-03-22 09:17:00,
2013-03-22 05:23:00,18.3,15.9,30.07,West,278,0.0,0.0,90,0.00,,,0.00,VWS V14.01,2013-03-22 09:23:00,
2013-03-22 05:28:00,18.4,16.0,30.07,West,278,0.0,0.0,90,0.00,,,0.00,VWS V14.01,2013-03-22 09:28:00,
2013-03-22 05:34:00,18.4,16.0,30.07,West,278,0.0,0.0,90,0.00,,,0.00,VWS V14.01,2013-03-22 09:34:00,
2013-03-22 05:39:00,18.3,16.0,30.07,West,278,0.0,0.0,90,0.00,,,0.00,weatherlink.com 1.10,2013-03-22 09:39:00,
2013-03-22 05:45:00,18.1,15.7,30.07,West,278,0.0,0.0,90,0.00,,,0.00,VWS V14.01,2013-03-22 09:45:00,
2013-03-22 05:50:00,18.1,15.9,30.06,West,278,0.0,0.0,91,0.00,,,0.00,VWS V14.01,2013-03-22 09:50:00,
2013-03-22 05:55:00,18.2,16.0,30.06,West,278,0.0,0.0,91,0.00,,,0.00,VWS V14.01,2013-03-22 09:55:00,
2013-03-22 06:00:00,18.2,16.0,30.07,West,278,0.0,0.0,91,0.00,,,0.00,VWS V14.01,2013-03-22 10:00:00,
2013-03-22 06:05:00,18.0,15.8,30.07,West,278,0.0,0.0,91,0.00,,,0.00,VWS V14.01,2013-03-22 10:05:00,
2013-03-22 06:10:00,17.4,15.0,30.07,West,278,0.0,0.0,90,0.00,,,0.00,VWS V14.01,2013-03-22 10:10:00,
2013-03-22 06:15:00,16.8,14.4,30.06,West,278,0.0,0.0,90,0.00,,,0.00,VWS V14.01,2013-03-22 10:15:00,
2013-03-22 06:20:00,16.6,14.2,30.06,West,278,0.0,0.0,90,0.00,,,0.00,VWS V14.01,2013-03-22 10:20:00,
2013-03-22 06:25:00,17.5,15.6,30.07,West,278,0.0,0.0,92,0.00,,,0.00,VWS V14.01,2013-03-22 10:25:00,
2013-03-22 06:30:00,17.5,15.3,30.07,West,278,0.0,0.0,91,0.00,,,0.00,VWS V14.01,2013-03-22 10:30:00,
2013-03-22 06:35:00,17.7,15.8,30.07,West,278,0.0,0.0,92,0.00,,,0.00,VWS V14.01,2013-03-22 10:35:00,
2013-03-22 06:40:00,17.9,16.2,30.07,West,278,0.0,0.0,93,0.00,,,0.00,VWS V14.01,2013-03-22 10:40:00,
2013-03-22 06:45:00,18.0,16.3,30.07,West,278,0.0,0.0,93,0.00,,,0.00,VWS V14.01,2013-03-22 10:45:00,
2013-03-22 06:50:00,18.1,16.4,30.07,West,278,0.0,0.0,93,0.00,,,0.00,VWS V14.01,2013-03-22 10:50:00,
2013-03-22 06:55:00,18.1,16.4,30.07,West,278,0.0,0.0,93,0.00,,,0.00,VWS V14.01,2013-03-22 10:55:00,
2013-03-22 07:00:00,18.1,16.2,30.07,West,278,0.0,0.0,92,0.00,,,0.00,VWS V14.01,2013-03-22 11:00:00,
2013-03-22 07:05:00,18.1,16.4,30.07,West,278,0.0,0.0,93,0.00,,,0.00,VWS V14.01,2013-03-22 11:05:00,
2013-03-22 07:10:00,18.0,16.1,30.08,West,278,0.0,0.0,92,0.00,,,0.00,VWS V14.01,2013-03-22 11:10:00,
2013-03-22 07:15:00,17.9,16.0,30.08,West,278,0.0,0.0,92,0.00,,,0.00,VWS V14.01,2013-03-22 11:15:00,
2013-03-22 07:20:00,17.9,16.2,30.08,West,278,0.0,0.0,93,0.00,,,0.00,VWS V14.01,2013-03-22 11:20:00,
2013-03-22 07:25:00,17.8,16.1,30.08,West,278,0.0,0.0,93,0.00,,,0.00,VWS V14.01,2013-03-22 11:25:00,
2013-03-22 07:30:00,17.8,16.1,30.08,West,278,0.0,0.0,93,0.00,,,0.00,VWS V14.01,2013-03-22 11:30:00,
2013-03-22 07:35:00,17.8,16.1,30.08,West,278,0.0,0.0,93,0.00,,,0.00,VWS V14.01,2013-03-22 11:35:00,
2013-03-22 07:40:00,17.8,16.1,30.08,West,278,0.0,0.0,93,0.00,,,0.00,VWS V14.01,2013-03-22 11:40:00,
2013-03-22 07:45:00,17.7,16.0,30.08,West,278,0.0,0.0,93,0.00,,,0.00,VWS V14.01,2013-03-22 11:45:00,
2013-03-22 07:50:00,17.9,16.2,30.08,West,278,0.0,0.0,93,0.00,,,0.00,VWS V14.01,2013-03-22 11:50:00,
2013-03-22 07:55:00,18.0,16.3,30.08,West,278,0.0,0.0,93,0.00,,,0.00,VWS V14.01,2013-03-22 11:55:00,
2013-03-22 08:00:00,18.0,16.3,30.08,West,278,0.0,0.0,93,0.00,,,0.00,VWS V14.01,2013-03-22 12:00:00,
2013-03-22 08:05:00,17.9,16.0,30.08,West,278,0.0,0.0,92,0.00,,,0.00,VWS V14.01,2013-03-22 12:05:00,
2013-03-22 08:10:00,17.8,15.9,30.08,West,278,0.0,0.0,92,0.00,,,0.00,VWS V14.01,2013-03-22 12:10:00,
2013-03-22 08:15:00,18.0,16.3,30.08,West,278,0.0,0.0,93,0.00,,,0.00,VWS V14.01,2013-03-22 12:15:00,
2013-03-22 08:20:00,18.1,16.4,30.08,West,278,0.0,0.0,93,0.00,,,0.00,VWS V14.01,2013-03-22 12:20:00,
2013-03-22 08:25:00,18.9,17.5,30.08,West,266,0.0,0.0,94,0.00,,,0.00,VWS V14.01,2013-03-22 12:25:00,
2013-03-22 08:30:00,19.6,17.9,30.08,West,266,0.0,0.0,93,0.00,,,0.00,VWS V14.01,2013-03-22 12:30:00,
2013-03-22 08:35:00,20.0,18.0,30.08,West,266,0.0,0.0,92,0.00,,,0.00,VWS V14.01,2013-03-22 12:35:00,
2013-03-22 08:40:00,20.6,18.4,30.08,WSW,256,0.0,0.0,91,0.00,,,0.00,VWS V14.01,2013-03-22 12:40:00,
2013-03-22 08:45:00,21.0,18.8,30.08,WSW,255,0.0,1.0,91,0.00,,,0.00,VWS V14.01,2013-03-22 12:45:00,
2013-03-22 08:50:00,21.5,19.0,30.08,WSW,238,0.0,1.0,90,0.00,,,0.00,VWS V14.01,2013-03-22 12:50:00,
2013-03-22 08:55:00,22.0,19.3,30.08,SW,214,0.0,1.0,89,0.00,,,0.00,VWS V14.01,2013-03-22 12:55:00,
2013-03-22 09:00:00,22.5,19.5,30.08,West,271,1.0,1.0,88,0.00,,,0.00,VWS V14.01,2013-03-22 13:00:00,
2013-03-22 09:05:00,23.0,19.5,30.08,South,188,1.0,1.0,86,0.00,,,0.00,VWS V14.01,2013-03-22 13:05:00,
2013-03-22 09:10:00,23.5,19.4,30.08,West,269,2.0,2.0,84,0.00,,,0.00,VWS V14.01,2013-03-22 13:10:00,
2013-03-22 09:15:00,24.0,19.6,30.08,SW,228,0.0,2.0,83,0.00,,,0.00,VWS V14.01,2013-03-22 13:15:00,
2013-03-22 09:20:00,24.5,20.0,30.08,SW,218,0.0,2.0,82,0.00,,,0.00,weatherlink.com 1.10,2013-03-22 13:20:00,
2013-03-22 09:25:00,25.0,20.0,30.08,WSW,243,1.0,2.0,81,0.00,,,0.00,VWS V14.01,2013-03-22 13:25:00,
2013-03-22 09:30:00,25.4,20.1,30.08,West,276,0.0,1.0,80,0.00,,,0.00,VWS V14.01,2013-03-22 13:30:00,
2013-03-22 09:35:00,25.9,20.3,30.08,West,280,0.0,1.0,79,0.00,,,0.00,VWS V14.01,2013-03-22 13:35:00,
2013-03-22 09:40:00,26.4,20.5,30.08,SW,214,0.0,2.0,78,0.00,,,0.00,VWS V14.01,2013-03-22 13:40:00,
2013-03-22 09:45:00,27.1,20.5,30.08,WSW,239,2.0,2.0,76,0.00,,,0.00,VWS V14.01,2013-03-22 13:45:00,
2013-03-22 09:50:00,27.3,19.8,30.08,WSW,245,0.0,4.0,73,0.00,,,0.00,VWS V14.01,2013-03-22 13:50:00,
2013-03-22 09:55:00,27.8,20.3,30.08,NW,307,0.0,4.0,73,0.00,,,0.00,VWS V14.01,2013-03-22 13:55:00,
2013-03-22 10:00:00,28.3,20.8,30.08,West,264,0.0,3.0,73,0.00,,,0.00,VWS V14.01,2013-03-22 14:00:00,
2013-03-22 10:05:00,28.9,21.0,30.08,WSW,245,2.0,3.0,72,0.00,,,0.00,VWS V14.01,2013-03-22 14:05:00,
2013-03-22 10:10:00,29.3,21.1,30.08,WSW,257,1.0,3.0,71,0.00,,,0.00,VWS V14.01,2013-03-22 14:10:00,
2013-03-22 10:15:00,30.2,21.3,30.08,SW,226,3.0,3.0,69,0.00,,,0.00,VWS V14.01,2013-03-22 14:15:00,
2013-03-22 10:20:00,30.3,21.4,30.08,SSW,204,1.0,4.0,69,0.00,,,0.00,VWS V14.01,2013-03-22 14:20:00,
2013-03-22 10:25:00,30.6,20.6,30.08,WNW,300,1.0,4.0,66,0.00,,,0.00,VWS V14.01,2013-03-22 14:25:00,
2013-03-22 10:30:00,30.9,20.9,30.08,ESE,120,0.0,2.0,66,0.00,,,0.00,VWS V14.01,2013-03-22 14:30:00,
2013-03-22 10:35:00,31.4,20.3,30.08,West,278,0.0,5.0,63,0.00,,,0.00,VWS V14.01,2013-03-22 14:35:00,
2013-03-22 10:40:00,31.7,20.2,30.08,WNW,299,1.0,5.0,62,0.00,,,0.00,VWS V14.01,2013-03-22 14:40:00,
2013-03-22 10:45:00,32.1,20.6,30.08,WSW,255,1.0,5.0,62,0.00,,,0.00,VWS V14.01,2013-03-22 14:45:00,
2013-03-22 10:50:00,32.2,19.5,30.08,WNW,288,3.0,5.0,59,0.00,,,0.00,VWS V14.01,2013-03-22 14:50:00,
2013-03-22 10:55:00,32.0,17.7,30.07,North,9,4.0,7.0,55,0.00,,,0.00,VWS V14.01,2013-03-22 14:55:00,
2013-03-22 11:00:00,32.2,18.3,30.08,WNW,288,2.0,6.0,56,0.00,,,0.00,VWS V14.01,2013-03-22 15:00:00,
2013-03-22 11:05:00,32.4,18.5,30.08,NW,305,5.0,6.0,56,0.00,,,0.00,VWS V14.01,2013-03-22 15:05:00,
2013-03-22 11:10:00,32.5,18.1,30.08,WNW,288,1.0,6.0,55,0.00,,,0.00,VWS V14.01,2013-03-22 15:10:00,
2013-03-22 11:15:00,33.0,18.6,30.08,WNW,291,3.0,6.0,55,0.00,,,0.00,VWS V14.01,2013-03-22 15:15:00,
2013-03-22 11:20:00,32.9,18.5,30.08,WNW,294,3.0,3.0,55,0.00,,,0.00,VWS V14.01,2013-03-22 15:20:00,
2013-03-22 11:25:00,33.3,18.5,30.08,WNW,293,2.0,5.0,54,0.00,,,0.00,VWS V14.01,2013-03-22 15:25:00,
2013-03-22 11:30:00,33.5,18.6,30.08,NW,314,4.0,6.0,54,0.00,,,0.00,VWS V14.01,2013-03-22 15:30:00,
2013-03-22 11:35:00,33.4,17.7,30.08,NNW,330,3.0,7.0,52,0.00,,,0.00,VWS V14.01,2013-03-22 15:35:00,
2013-03-22 11:40:00,34.0,17.3,30.08,West,280,2.0,7.0,50,0.00,,,0.00,VWS V14.01,2013-03-22 15:40:00,
2013-03-22 11:44:00,34.0,18.2,30.08,WSW,246,5.0,7.0,52,0.00,,,0.00,VWS V14.01,2013-03-22 15:44:00,
2013-03-22 11:49:00,34.3,18.5,30.08,WNW,297,5.0,7.0,52,0.00,,,0.00,VWS V14.01,2013-03-22 15:49:00,
2013-03-22 11:54:00,34.4,18.2,30.08,West,280,2.0,8.0,51,0.00,,,0.00,VWS V14.01,2013-03-22 15:54:00,
2013-03-22 11:59:00,34.4,18.6,30.09,WSW,257,4.0,7.0,52,0.00,,,0.00,VWS V14.01,2013-03-22 15:59:00,
2013-03-22 12:00:00,34.3,17.6,30.08,NW,304,4.0,8.0,50,0.00,,,0.00,VWS V14.01,2013-03-22 16:00:00,
2013-03-22 12:04:00,34.4,17.7,30.09,SW,231,3.0,7.0,50,0.00,,,0.00,VWS V14.01,2013-03-22 16:04:00,
2013-03-22 12:09:00,34.5,18.2,30.09,NW,307,6.0,7.0,51,0.00,,,0.00,VWS V14.01,2013-03-22 16:09:00,
2013-03-22 12:14:00,34.9,18.2,30.09,West,272,5.0,7.0,50,0.00,,,0.00,VWS V14.01,2013-03-22 16:14:00,
2013-03-22 12:27:00,34.7,17.0,30.09,NW,307,3.0,9.0,49,0.00,,,0.00,weatherlink.com 1.10,2013-03-22 16:27:00,
2013-03-22 12:42:00,35.5,17.0,30.09,WNW,297,2.0,9.0,48,0.00,,,0.00,weatherlink.com 1.10,2013-03-22 16:42:00,
2013-03-22 12:57:00,36.4,18.0,30.08,NW,319,8.0,9.0,48,0.00,,,0.00,weatherlink.com 1.10,2013-03-22 16:57:00,
2013-03-22 13:12:00,36.3,18.0,30.08,WNW,298,4.0,10.0,47,0.00,,,0.00,weatherlink.com 1.10,2013-03-22 17:12:00,
2013-03-22 13:27:00,36.6,18.0,30.08,NW,305,6.0,8.0,48,0.00,,,0.00,weatherlink.com 1.10,2013-03-22 17:27:00,
2013-03-22 13:42:00,36.9,18.0,30.07,SSW,198,3.0,9.0,47,0.00,,,0.00,weatherlink.com 1.10,2013-03-22 17:42:00,
2013-03-22 13:57:00,38.6,20.0,30.07,NW,308,8.0,9.0,47,0.00,,,0.00,weatherlink.com 1.10,2013-03-22 17:57:00,
2013-03-22 14:12:00,37.9,19.0,30.07,WNW,284,4.0,8.0,47,0.00,,,0.00,weatherlink.com 1.10,2013-03-22 18:12:00,
2013-03-22 14:27:00,38.7,19.0,30.06,NNW,327,6.0,9.0,45,0.00,,,0.00,weatherlink.com 1.10,2013-03-22 18:27:00,
2013-03-22 14:42:00,39.3,19.0,30.05,SW,221,2.0,9.0,45,0.00,,,0.00,weatherlink.com 1.10,2013-03-22 18:42:00,
2013-03-22 14:57:00,39.7,19.0,30.05,West,278,3.0,9.0,44,0.00,,,0.00,weatherlink.com 1.10,2013-03-22 18:57:00,
2013-03-22 15:12:00,40.0,19.0,30.05,NW,309,3.0,8.0,43,0.00,,,0.00,weatherlink.com 1.10,2013-03-22 19:12:00,
2013-03-22 15:27:00,40.4,19.0,30.04,NW,313,4.0,7.0,43,0.00,,,0.00,weatherlink.com 1.10,2013-03-22 19:27:00,
2013-03-22 15:42:00,40.1,20.0,30.03,WNW,297,3.0,7.0,45,0.00,,,0.00,weatherlink.com 1.10,2013-03-22 19:42:00,
2013-03-22 15:57:00,40.4,21.0,30.03,NW,311,4.0,6.0,46,0.00,,,0.00,weatherlink.com 1.10,2013-03-22 19:57:00,
2013-03-22 16:12:00,41.1,20.0,30.02,NNW,347,4.0,7.0,43,0.00,,,0.00,weatherlink.com 1.10,2013-03-22 20:12:00,
2013-03-22 16:27:00,40.7,21.0,30.02,NNW,342,1.0,6.0,45,0.00,,,0.00,weatherlink.com 1.10,2013-03-22 20:27:00,
2013-03-22 16:42:00,41.1,21.0,30.02,NW,312,3.0,8.0,44,0.00,,,0.00,weatherlink.com 1.10,2013-03-22 20:42:00,
2013-03-22 16:57:00,41.0,20.0,30.02,West,281,5.0,9.0,43,0.00,,,0.00,weatherlink.com 1.10,2013-03-22 20:57:00,
2013-03-22 17:03:00,41.4,20.6,30.02,NNW,338,4.0,4.0,43,0.00,,,0.00,VWS V14.01,2013-03-22 21:03:00,
2013-03-22 17:08:00,41.3,19.4,30.02,NE,38,2.0,6.0,41,0.00,,,0.00,VWS V14.01,2013-03-22 21:08:00,
2013-03-22 17:13:00,41.2,19.3,30.02,NW,305,3.0,6.0,41,0.00,,,0.00,VWS V14.01,2013-03-22 21:13:00,
2013-03-22 17:18:00,41.5,19.0,30.02,NW,316,4.0,7.0,40,0.00,,,0.00,VWS V14.01,2013-03-22 21:18:00,
2013-03-22 17:23:00,42.2,19.6,30.02,SW,233,2.0,7.0,40,0.00,,,0.00,VWS V14.01,2013-03-22 21:23:00,
2013-03-22 17:28:00,42.4,20.4,30.02,West,270,5.0,8.0,41,0.00,,,0.00,VWS V14.01,2013-03-22 21:28:00,
2013-03-22 17:30:00,42.4,20.4,30.02,NW,317,2.0,7.0,41,0.00,,,0.00,VWS V14.01,2013-03-22 21:30:00,
2013-03-22 17:35:00,42.4,20.4,30.02,NNW,330,2.0,2.0,41,0.00,,,0.00,VWS V14.01,2013-03-22 21:35:00,
2013-03-22 17:40:00,42.1,20.1,30.02,WNW,301,1.0,6.0,41,0.00,,,0.00,VWS V14.01,2013-03-22 21:40:00,
2013-03-22 17:45:00,42.2,20.2,30.02,WNW,298,7.0,7.0,41,0.00,,,0.00,VWS V14.01,2013-03-22 21:45:00,
2013-03-22 17:50:00,41.9,19.9,30.02,NNW,348,4.0,7.0,41,0.00,,,0.00,VWS V14.01,2013-03-22 21:50:00,
2013-03-22 17:55:00,41.9,19.9,30.02,WNW,302,5.0,7.0,41,0.00,,,0.00,VWS V14.01,2013-03-22 21:55:00,
2013-03-22 18:00:00,42.0,20.0,30.02,WNW,288,2.0,3.0,41,0.00,,,0.00,VWS V14.01,2013-03-22 22:00:00,
2013-03-22 18:05:00,41.9,19.4,30.02,WNW,302,4.0,7.0,40,0.00,,,0.00,VWS V14.01,2013-03-22 22:05:00,
2013-03-22 18:10:00,41.7,19.8,30.02,WNW,290,2.0,7.0,41,0.00,,,0.00,VWS V14.01,2013-03-22 22:10:00,
2013-03-22 18:15:00,42.0,20.0,30.02,SW,219,3.0,7.0,41,0.00,,,0.00,VWS V14.01,2013-03-22 22:15:00,
2013-03-22 18:20:00,42.2,20.2,30.02,WSW,257,1.0,7.0,41,0.00,,,0.00,VWS V14.01,2013-03-22 22:20:00,
2013-03-22 18:25:00,42.1,20.1,30.02,NW,314,1.0,7.0,41,0.00,,,0.00,VWS V14.01,2013-03-22 22:25:00,
2013-03-22 18:30:00,42.0,19.5,30.02,NW,307,4.0,9.0,40,0.00,,,0.00,VWS V14.01,2013-03-22 22:30:00,
2013-03-22 18:35:00,41.9,20.5,30.02,WNW,298,2.0,9.0,42,0.00,,,0.00,VWS V14.01,2013-03-22 22:35:00,
2013-03-22 18:41:00,42.1,20.1,30.02,NNW,338,2.0,2.0,41,0.00,,,0.00,VWS V14.01,2013-03-22 22:41:00,
2013-03-22 18:46:00,41.7,20.3,30.02,NNW,338,1.0,4.0,42,0.00,,,0.00,VWS V14.01,2013-03-22 22:46:00,
2013-03-22 18:52:00,41.4,20.6,30.03,NW,325,2.0,4.0,43,0.00,,,0.00,VWS V14.01,2013-03-22 22:52:00,
2013-03-22 18:57:00,41.1,20.3,30.03,NW,304,2.0,5.0,43,0.00,,,0.00,VWS V14.01,2013-03-22 22:57:00,
2013-03-22 19:00:00,41.1,20.3,30.03,WNW,302,1.0,5.0,43,0.00,,,0.00,VWS V14.01,2013-03-22 23:00:00,
2013-03-22 19:02:00,40.9,20.1,30.03,WNW,285,2.0,5.0,43,0.00,,,0.00,VWS V14.01,2013-03-22 23:02:00,
2013-03-22 19:07:00,40.8,20.0,30.03,NW,312,2.0,5.0,43,0.00,,,0.00,VWS V14.01,2013-03-22 23:07:00,
2013-03-22 19:12:00,40.7,20.0,30.03,NW,315,2.0,6.0,43,0.00,,,0.00,VWS V14.01,2013-03-22 23:12:00,
2013-03-22 19:17:00,40.4,19.7,30.03,NW,316,2.0,7.0,43,0.00,,,0.00,VWS V14.01,2013-03-22 23:17:00,
2013-03-22 19:22:00,40.1,20.0,30.03,NNW,328,0.0,7.0,44,0.00,,,0.00,VWS V14.01,2013-03-22 23:22:00,
2013-03-22 19:27:00,39.9,19.8,30.03,NW,307,3.0,7.0,44,0.00,,,0.00,VWS V14.01,2013-03-22 23:27:00,
2013-03-22 19:30:00,39.9,19.8,30.03,WNW,297,3.0,7.0,44,0.00,,,0.00,VWS V14.01,2013-03-22 23:30:00,
2013-03-22 19:32:00,39.6,20.5,30.03,WNW,285,1.0,5.0,46,0.00,,,0.00,VWS V14.01,2013-03-22 23:32:00,
2013-03-22 19:37:00,39.3,20.3,30.04,WNW,297,1.0,1.0,46,0.00,,,0.00,VWS V14.01,2013-03-22 23:37:00,
2013-03-22 19:42:00,39.1,20.1,30.04,WNW,290,1.0,4.0,46,0.00,,,0.00,VWS V14.01,2013-03-22 23:42:00,
2013-03-22 19:47:00,38.9,20.4,30.04,NW,315,0.0,4.0,47,0.00,,,0.00,VWS V14.01,2013-03-22 23:47:00,
2013-03-22 19:52:00,38.5,20.0,30.04,WNW,287,0.0,4.0,47,0.00,,,0.00,VWS V14.01,2013-03-22 23:52:00,
2013-03-22 19:57:00,38.1,19.7,30.04,NW,305,1.0,4.0,47,0.00,,,0.00,VWS V14.01,2013-03-22 23:57:00,
2013-03-22 20:00:00,38.1,19.7,30.04,WNW,300,1.0,4.0,47,0.00,,,0.00,VWS V14.01,2013-03-23 00:00:00,
2013-03-22 20:02:00,37.8,19.4,30.05,WNW,294,1.0,1.0,47,0.00,,,0.00,VWS V14.01,2013-03-23 00:02:00,
2013-03-22 20:07:00,37.6,19.7,30.05,WNW,285,0.0,1.0,48,0.00,,,0.00,VWS V14.01,2013-03-23 00:07:00,
2013-03-22 20:12:00,37.4,19.5,30.05,West,274,0.0,1.0,48,0.00,,,0.00,VWS V14.01,2013-03-23 00:12:00,
2013-03-22 20:17:00,37.1,19.2,30.05,West,274,0.0,1.0,48,0.00,,,0.00,VWS V14.01,2013-03-23 00:17:00,
2013-03-22 20:22:00,36.7,19.4,30.05,West,274,0.0,1.0,49,0.00,,,0.00,VWS V14.01,2013-03-23 00:22:00,
2013-03-22 20:27:00,36.3,19.5,30.05,West,274,0.0,1.0,50,0.00,,,0.00,VWS V14.01,2013-03-23 00:27:00,
2013-03-22 20:30:00,36.3,19.5,30.05,West,274,0.0,1.0,50,0.00,,,0.00,VWS V14.01,2013-03-23 00:30:00,
2013-03-22 20:32:00,35.9,19.1,30.05,West,274,0.0,0.0,50,0.00,,,0.00,VWS V14.01,2013-03-23 00:32:00,
2013-03-22 20:37:00,35.7,19.4,30.04,West,274,0.0,0.0,51,0.00,,,0.00,VWS V14.01,2013-03-23 00:37:00,
2013-03-22 20:42:00,35.4,19.1,30.04,West,274,0.0,0.0,51,0.00,,,0.00,VWS V14.01,2013-03-23 00:42:00,
2013-03-22 20:47:00,35.2,19.4,30.04,West,274,0.0,0.0,52,0.00,,,0.00,VWS V14.01,2013-03-23 00:47:00,
2013-03-22 20:52:00,34.7,18.9,30.04,West,274,0.0,0.0,52,0.00,,,0.00,VWS V14.01,2013-03-23 00:52:00,
2013-03-22 20:57:00,33.7,18.4,30.04,West,274,0.0,0.0,53,0.00,,,0.00,VWS V14.01,2013-03-23 00:57:00,
2013-03-22 21:00:00,33.7,18.4,30.04,West,274,0.0,0.0,53,0.00,,,0.00,VWS V14.01,2013-03-23 01:00:00,
2013-03-22 21:02:00,32.9,18.1,30.04,West,274,0.0,0.0,54,0.00,,,0.00,VWS V14.01,2013-03-23 01:02:00,
2013-03-22 21:07:00,32.6,19.1,30.04,West,274,0.0,0.0,57,0.00,,,0.00,VWS V14.01,2013-03-23 01:07:00,
2013-03-22 21:12:00,33.0,19.4,30.04,West,274,0.0,0.0,57,0.00,,,0.00,VWS V14.01,2013-03-23 01:12:00,
2013-03-22 21:17:00,32.9,19.8,30.04,West,274,0.0,0.0,58,0.00,,,0.00,VWS V14.01,2013-03-23 01:17:00,
2013-03-22 21:22:00,32.5,19.4,30.04,West,274,0.0,0.0,58,0.00,,,0.00,VWS V14.01,2013-03-23 01:22:00,
2013-03-22 21:27:00,32.0,19.3,30.04,West,274,0.0,0.0,59,0.00,,,0.00,VWS V14.01,2013-03-23 01:27:00,
2013-03-22 21:30:00,32.0,19.3,30.04,West,274,0.0,0.0,59,0.00,,,0.00,VWS V14.01,2013-03-23 01:30:00,
2013-03-22 21:32:00,32.0,19.7,30.04,West,274,0.0,0.0,60,0.00,,,0.00,VWS V14.01,2013-03-23 01:32:00,
2013-03-22 21:37:00,31.8,19.5,30.04,West,274,0.0,0.0,60,0.00,,,0.00,VWS V14.01,2013-03-23 01:37:00,
2013-03-22 21:42:00,31.6,19.7,30.04,West,274,0.0,0.0,61,0.00,,,0.00,VWS V14.01,2013-03-23 01:42:00,
2013-03-22 21:47:00,31.5,20.0,30.04,West,274,0.0,0.0,62,0.00,,,0.00,VWS V14.01,2013-03-23 01:47:00,
2013-03-22 21:52:00,31.3,19.8,30.04,West,274,0.0,0.0,62,0.00,,,0.00,VWS V14.01,2013-03-23 01:52:00,
2013-03-22 21:57:00,30.6,19.5,30.04,West,274,0.0,0.0,63,0.00,,,0.00,VWS V14.01,2013-03-23 01:57:00,
2013-03-22 22:00:00,30.6,19.5,30.04,West,274,0.0,0.0,63,0.00,,,0.00,VWS V14.01,2013-03-23 02:00:00,
2013-03-22 22:02:00,30.2,19.5,30.04,West,274,0.0,0.0,64,0.00,,,0.00,VWS V14.01,2013-03-23 02:02:00,
2013-03-22 22:07:00,30.1,20.1,30.05,West,274,0.0,0.0,66,0.00,,,0.00,VWS V14.01,2013-03-23 02:07:00,
2013-03-22 22:12:00,30.4,20.4,30.05,West,274,0.0,0.0,66,0.00,,,0.00,VWS V14.01,2013-03-23 02:12:00,
2013-03-22 22:17:00,30.5,20.1,30.05,West,274,0.0,0.0,65,0.00,,,0.00,VWS V14.01,2013-03-23 02:17:00,
2013-03-22 22:22:00,30.4,20.4,30.05,West,274,0.0,0.0,66,0.00,,,0.00,VWS V14.01,2013-03-23 02:22:00,
2013-03-22 22:27:00,30.2,20.6,30.05,West,274,0.0,0.0,67,0.00,,,0.00,VWS V14.01,2013-03-23 02:27:00,
2013-03-22 22:30:00,30.2,20.6,30.05,West,274,0.0,0.0,67,0.00,,,0.00,VWS V14.01,2013-03-23 02:30:00,
2013-03-22 22:32:00,29.9,19.9,30.05,West,274,0.0,0.0,66,0.00,,,0.00,VWS V14.01,2013-03-23 02:32:00,
2013-03-22 22:37:00,29.4,19.8,30.05,West,274,0.0,0.0,67,0.00,,,0.00,VWS V14.01,2013-03-23 02:37:00,
2013-03-22 22:42:00,29.1,19.9,30.05,West,274,0.0,0.0,68,0.00,,,0.00,VWS V14.01,2013-03-23 02:42:00,
2013-03-22 22:47:00,28.6,19.4,30.05,West,274,0.0,0.0,68,0.00,,,0.00,VWS V14.01,2013-03-23 02:47:00,
2013-03-22 22:52:00,28.8,20.3,30.05,West,274,0.0,0.0,70,0.00,,,0.00,VWS V14.01,2013-03-23 02:52:00,
2013-03-22 22:57:00,28.9,20.0,30.05,West,274,0.0,0.0,69,0.00,,,0.00,VWS V14.01,2013-03-23 02:57:00,
2013-03-22 23:00:00,28.9,20.0,30.05,West,274,0.0,0.0,69,0.00,,,0.00,VWS V14.01,2013-03-23 03:00:00,
2013-03-22 23:02:00,29.2,20.3,30.05,West,274,0.0,0.0,69,0.00,,,0.00,VWS V14.01,2013-03-23 03:02:00,
2013-03-22 23:07:00,29.4,20.8,30.06,West,274,0.0,0.0,70,0.00,,,0.00,VWS V14.01,2013-03-23 03:07:00,
2013-03-22 23:12:00,29.6,20.7,30.06,West,274,0.0,0.0,69,0.00,,,0.00,VWS V14.01,2013-03-23 03:12:00,
2013-03-22 23:17:00,29.6,20.7,30.06,West,274,0.0,0.0,69,0.00,,,0.00,VWS V14.01,2013-03-23 03:17:00,
2013-03-22 23:22:00,29.4,20.5,30.06,West,274,0.0,0.0,69,0.00,,,0.00,VWS V14.01,2013-03-23 03:22:00,
2013-03-22 23:27:00,29.1,20.5,30.06,West,274,0.0,0.0,70,0.00,,,0.00,VWS V14.01,2013-03-23 03:27:00,
2013-03-22 23:30:00,29.1,20.5,30.06,West,274,0.0,0.0,70,0.00,,,0.00,VWS V14.01,2013-03-23 03:30:00,
2013-03-22 23:32:00,29.2,21.0,30.06,West,274,0.0,0.0,71,0.00,,,0.00,VWS V14.01,2013-03-23 03:32:00,
2013-03-22 23:37:00,29.2,20.6,30.06,West,274,0.0,0.0,70,0.00,,,0.00,VWS V14.01,2013-03-23 03:37:00,
2013-03-22 23:42:00,29.2,20.6,30.06,West,274,0.0,0.0,70,0.00,,,0.00,VWS V14.01,2013-03-23 03:42:00,
2013-03-22 23:47:00,29.2,20.6,30.06,West,274,0.0,0.0,70,0.00,,,0.00,VWS V14.01,2013-03-23 03:47:00,
2013-03-22 23:52:00,29.5,20.9,30.06,West,274,0.0,0.0,70,0.00,,,0.00,VWS V14.01,2013-03-23 03:52:00,
2013-03-22 23:57:00,29.6,21.0,30.06,West,274,0.0,0.0,70,0.00,,,0.00,VWS V14.01,2013-03-23 03:57:00,